createdAt,value
2019-01-06T00:02:47.484Z,10.97
2019-01-06T00:08:23.058Z,7.67
2019-01-06T00:13:46.466Z,5.20
2019-01-06T00:19:19.165Z,7.27
2019-01-06T00:24:41.259Z,6.43
2019-01-06T00:30:13.150Z,12.20
2019-01-06T00:35:44.370Z,4.03
2019-01-06T00:41:20.029Z,4.00
2019-01-06T00:46:47.210Z,5.07
2019-01-06T00:52:09.303Z,5.63
2019-01-06T00:57:29.663Z,7.55
2019-01-06T01:02:51.368Z,4.03
2019-01-06T01:08:18.383Z,4.47
2019-01-06T01:13:47.881Z,3.60
2019-01-06T01:19:29.632Z,3.37
2019-01-06T01:24:55.743Z,3.43
2019-01-06T01:30:17.739Z,5.20
2019-01-06T01:35:50.148Z,5.03
2019-01-06T01:41:21.343Z,5.03
2019-01-06T01:46:55.155Z,6.10
2019-01-06T01:52:17.678Z,8.23
2019-01-06T01:57:40.000Z,6.60
2019-01-06T02:03:02.397Z,6.30
2019-01-06T02:08:18.365Z,4.80
2019-01-06T02:13:44.647Z,4.43
2019-01-06T02:19:06.382Z,6.00
2019-01-06T02:24:29.813Z,3.40
2019-01-06T02:29:47.729Z,4.30
2019-01-06T02:35:17.173Z,4.17
2019-01-06T02:40:40.705Z,4.67
2019-01-06T02:46:01.284Z,3.50
2019-01-06T02:51:25.651Z,4.10
2019-01-06T02:56:48.197Z,3.77
2019-01-06T03:02:21.678Z,4.33
2019-01-06T03:07:45.201Z,11.38
2019-01-06T03:13:20.743Z,8.60
2019-01-06T03:18:50.275Z,5.03
2019-01-06T03:24:20.056Z,3.10
2019-01-06T03:29:42.179Z,2.47
2019-01-06T03:35:08.425Z,3.67
2019-01-06T03:40:44.540Z,3.53
2019-01-06T03:46:07.059Z,3.60
2019-01-06T03:51:31.366Z,3.33
2019-01-06T03:57:10.326Z,4.40
2019-01-06T04:02:40.051Z,4.80
2019-01-06T04:08:04.582Z,11.05
2019-01-06T04:13:26.913Z,4.43
2019-01-06T04:18:53.408Z,11.70
2019-01-06T04:24:28.576Z,7.77
2019-01-06T04:29:51.164Z,16.83
2019-01-06T04:35:13.261Z,6.70
2019-01-06T04:40:45.722Z,3.93
2019-01-06T04:46:17.889Z,6.33
2019-01-06T04:51:44.855Z,7.87
2019-01-06T04:57:07.828Z,9.87
2019-01-06T05:02:31.088Z,4.87
2019-01-06T05:07:53.416Z,6.03
2019-01-06T05:13:15.579Z,6.33
2019-01-06T05:18:45.047Z,6.23
2019-01-06T05:24:07.626Z,5.50
2019-01-06T05:29:29.619Z,4.50
2019-01-06T05:35:05.351Z,4.10
2019-01-06T05:40:37.583Z,5.43
2019-01-06T05:46:07.417Z,8.63
2019-01-06T05:51:29.727Z,11.07
2019-01-06T05:56:53.572Z,9.60
2019-01-06T06:02:15.980Z,5.67
2019-01-06T06:07:52.055Z,8.43
2019-01-06T06:13:21.055Z,8.80
2019-01-06T06:18:47.448Z,11.60
2019-01-06T06:24:17.925Z,19.83
2019-01-06T06:29:56.564Z,12.87
2019-01-06T06:35:29.006Z,10.77
2019-01-06T06:41:01.913Z,10.80
2019-01-06T06:46:24.264Z,5.87
2019-01-06T06:51:59.791Z,18.87
2019-01-06T06:58:18.541Z,14.20
2019-01-06T07:03:48.895Z,24.03
2019-01-06T07:09:11.676Z,27.60
2019-01-06T07:14:42.621Z,15.33
2019-01-06T07:20:07.872Z,17.90
2019-01-06T07:25:30.090Z,19.23
2019-01-06T07:30:50.437Z,29.73
2019-01-06T07:36:25.820Z,31.00
2019-01-06T07:41:48.155Z,27.10
2019-01-06T07:47:17.630Z,31.07
2019-01-06T07:52:39.298Z,39.03
2019-01-06T07:58:09.716Z,38.33
2019-01-06T08:03:51.768Z,23.12
2019-01-06T08:09:15.429Z,23.60
2019-01-06T08:14:38.948Z,18.67
2019-01-06T08:20:08.548Z,36.17
2019-01-06T08:25:30.900Z,46.23
2019-01-06T08:31:03.488Z,41.35
2019-01-06T08:36:35.990Z,62.58
2019-01-06T08:42:05.520Z,41.68
2019-01-06T08:47:34.379Z,30.20
2019-01-06T08:52:57.895Z,32.78
2019-01-06T08:58:17.086Z,36.50
2019-01-06T09:03:41.959Z,48.78
2019-01-06T09:09:14.529Z,46.15
2019-01-06T09:14:40.949Z,35.65
2019-01-06T09:20:07.347Z,20.70
2019-01-06T09:25:31.034Z,20.43
2019-01-06T09:30:58.353Z,17.62
2019-01-06T09:36:20.745Z,19.23
2019-01-06T09:42:03.089Z,25.40
2019-01-06T09:47:27.114Z,21.07
2019-01-06T09:52:53.761Z,21.20
2019-01-06T09:58:15.918Z,18.62
2019-01-06T10:03:48.170Z,20.27
2019-01-06T10:09:10.815Z,21.13
2019-01-06T10:14:34.642Z,20.07
2019-01-06T10:20:03.589Z,21.57
2019-01-06T10:25:37.420Z,20.83
2019-01-06T10:31:16.164Z,27.73
2019-01-06T10:36:46.611Z,21.97
2019-01-06T10:42:22.050Z,22.42
2019-01-06T10:47:57.589Z,26.70
2019-01-06T10:53:24.111Z,27.40
2019-01-06T10:59:02.593Z,39.60
2019-01-06T11:04:25.065Z,32.50
2019-01-06T11:10:03.791Z,26.05
2019-01-06T11:15:30.233Z,25.68
2019-01-06T11:20:52.884Z,28.92
2019-01-06T11:26:32.058Z,29.07
2019-01-06T11:32:07.719Z,24.20
2019-01-06T11:37:30.920Z,30.25
2019-01-06T11:42:57.217Z,36.05
2019-01-06T11:48:19.396Z,45.38
2019-01-06T11:53:46.024Z,50.90
2019-01-06T11:59:12.562Z,46.30
2019-01-06T12:04:36.142Z,40.65
2019-01-06T12:10:05.885Z,35.25
2019-01-06T12:15:28.176Z,41.07
2019-01-06T12:20:53.305Z,40.23
2019-01-06T12:26:19.553Z,32.28
2019-01-06T12:31:49.112Z,20.40
2019-01-06T12:37:12.556Z,16.57
2019-01-06T12:42:39.517Z,6.87
2019-01-06T12:48:12.408Z,10.63
2019-01-06T12:53:39.120Z,10.00
2019-01-06T12:59:14.085Z,6.78
2019-01-06T13:04:47.553Z,8.37
2019-01-06T13:10:20.054Z,4.70
2019-01-06T13:15:45.248Z,11.10
2019-01-06T13:21:08.642Z,8.67
2019-01-06T13:26:34.801Z,9.95
2019-01-06T13:31:58.325Z,10.90
2019-01-06T13:37:20.303Z,9.20
2019-01-06T13:42:49.760Z,10.48
2019-01-06T13:48:13.644Z,4.90
2019-01-06T13:53:36.120Z,7.42
2019-01-06T13:58:58.850Z,9.15
2019-01-06T14:04:25.078Z,5.50
2019-01-06T14:09:48.824Z,9.60
2019-01-06T14:15:11.048Z,10.32
2019-01-06T14:20:28.727Z,8.35
2019-01-06T14:25:58.031Z,14.53
2019-01-06T14:31:39.914Z,19.67
2019-01-06T14:37:03.173Z,11.38
2019-01-06T14:42:45.776Z,14.65
2019-01-06T14:48:09.611Z,13.58
2019-01-06T14:53:32.891Z,6.83
2019-01-06T14:58:56.320Z,8.88
2019-01-06T15:04:18.554Z,21.73
2019-01-06T15:09:41.131Z,14.00
2019-01-06T15:15:08.341Z,11.75
2019-01-06T15:20:50.167Z,11.40
2019-01-06T15:26:17.755Z,15.20
2019-01-06T15:31:39.617Z,10.53
2019-01-06T15:37:15.742Z,6.33
2019-01-06T15:42:45.352Z,15.72
2019-01-06T15:48:07.818Z,9.83
2019-01-06T15:53:41.646Z,9.43
2019-01-06T15:59:03.650Z,12.10
2019-01-06T16:04:27.024Z,22.30
2019-01-06T16:09:44.866Z,24.18
2019-01-06T16:15:08.527Z,17.73
2019-01-06T16:20:46.022Z,21.73
2019-01-06T16:26:18.677Z,21.17
2019-01-06T16:31:44.727Z,20.70
2019-01-06T16:37:20.479Z,23.57
2019-01-06T16:42:53.667Z,12.68
2019-01-06T16:48:20.918Z,11.08
2019-01-06T16:53:48.733Z,15.83
2019-01-06T16:59:06.765Z,17.25
2019-01-06T17:04:36.631Z,14.03
2019-01-06T17:10:12.407Z,45.23
2019-01-06T17:15:38.768Z,8.65
2019-01-06T17:21:09.355Z,15.88
2019-01-06T17:26:33.158Z,13.27
2019-01-06T17:32:03.187Z,8.60
2019-01-06T17:37:42.079Z,9.85
2019-01-06T17:43:03.964Z,12.13
2019-01-06T17:48:26.734Z,8.53
2019-01-06T17:54:04.524Z,15.27
2019-01-06T17:59:26.631Z,7.78
2019-01-06T18:04:52.963Z,19.70
2019-01-06T18:10:21.829Z,15.03
2019-01-06T18:15:45.031Z,22.30
2019-01-06T18:21:22.219Z,9.08
2019-01-06T18:26:44.434Z,20.70
2019-01-06T18:32:11.357Z,18.03
2019-01-06T18:37:34.743Z,9.83
2019-01-06T18:43:02.757Z,7.33
2019-01-06T18:48:29.084Z,16.52
2019-01-06T18:53:59.423Z,15.40
2019-01-06T18:59:28.891Z,28.27
2019-01-06T19:04:55.384Z,34.60
2019-01-06T19:10:17.706Z,15.55
2019-01-06T19:15:39.651Z,12.57
2019-01-06T19:21:02.673Z,14.23
2019-01-06T19:26:32.440Z,19.20
2019-01-06T19:32:01.809Z,10.95
2019-01-06T19:37:23.576Z,21.60
2019-01-06T19:42:54.368Z,10.72
2019-01-06T19:48:27.968Z,11.97
2019-01-06T19:53:54.841Z,11.78
2019-01-06T19:59:18.904Z,7.10
2019-01-06T20:04:41.174Z,10.45
2019-01-06T20:10:16.514Z,9.88
2019-01-06T20:15:52.293Z,14.55
2019-01-06T20:21:15.935Z,21.27
2019-01-06T20:26:38.441Z,27.05
2019-01-06T20:32:00.994Z,22.20
2019-01-06T20:37:36.754Z,26.70
2019-01-06T20:43:04.455Z,15.95
2019-01-06T20:48:49.561Z,30.27
2019-01-06T20:54:24.299Z,19.92
2019-01-06T20:59:49.794Z,14.53
2019-01-06T21:05:10.300Z,20.20
2019-01-06T21:10:26.169Z,51.80
2019-01-06T21:15:52.089Z,44.40
2019-01-06T21:21:14.636Z,45.00
2019-01-06T21:26:38.345Z,39.17
2019-01-06T21:32:14.235Z,39.70
2019-01-06T21:37:40.669Z,41.15
2019-01-06T21:43:07.002Z,38.13
2019-01-06T21:48:30.363Z,23.67
2019-01-06T21:54:03.813Z,31.10
2019-01-06T21:59:16.066Z,34.35
2019-01-06T22:04:38.594Z,16.07
2019-01-06T22:10:11.011Z,14.47
2019-01-06T22:15:40.318Z,19.87
2019-01-06T22:21:06.676Z,24.80
2019-01-06T22:26:31.520Z,32.17
2019-01-06T22:32:15.748Z,14.30
2019-01-06T22:37:45.834Z,21.17
2019-01-06T22:43:09.284Z,16.35
2019-01-06T22:48:40.658Z,14.65
2019-01-06T22:54:02.739Z,13.20
2019-01-06T22:59:33.080Z,9.10
2019-01-06T23:05:07.219Z,9.60
2019-01-06T23:10:30.677Z,24.00
2019-01-06T23:15:52.932Z,15.00
2019-01-06T23:21:31.548Z,24.43
2019-01-06T23:26:54.988Z,14.83
2019-01-06T23:32:24.740Z,9.80
2019-01-06T23:37:47.003Z,7.50
2019-01-06T23:43:10.721Z,10.40
2019-01-06T23:48:46.345Z,9.75
2019-01-06T23:54:13.205Z,11.37
2019-01-06T23:59:31.116Z,10.05
